createdAt,value
2022-08-20T00:01:44.310Z,18.80
2022-08-20T00:04:17.831Z,19.00
2022-08-20T00:06:50.955Z,18.55
2022-08-20T00:09:19.346Z,16.70
2022-08-20T00:11:47.809Z,18.60
2022-08-20T00:14:19.150Z,17.94
2022-08-20T00:16:47.535Z,19.20
2022-08-20T00:19:16.317Z,17.63
2022-08-20T00:21:44.834Z,20.02
2022-08-20T00:24:15.483Z,20.58
2022-08-20T00:26:52.457Z,18.08
2022-08-20T00:29:22.335Z,18.42
2022-08-20T00:31:51.200Z,18.08
2022-08-20T00:34:19.916Z,19.08
2022-08-20T00:36:48.516Z,19.65
2022-08-20T00:39:17.026Z,19.45
2022-08-20T00:41:46.249Z,16.42
2022-08-20T00:44:19.164Z,17.92
2022-08-20T00:46:50.612Z,17.95
2022-08-20T00:49:22.636Z,18.88
2022-08-20T00:52:16.285Z,18.45
2022-08-20T00:54:57.767Z,18.10
2022-08-20T00:57:58.948Z,18.38
2022-08-20T01:00:23.690Z,20.02
2022-08-20T01:02:52.231Z,19.90
2022-08-20T01:05:21.714Z,21.92
2022-08-20T01:07:58.104Z,20.88
2022-08-20T01:10:29.153Z,20.77
2022-08-20T01:13:04.824Z,20.63
2022-08-20T01:15:33.217Z,22.45
2022-08-20T01:18:02.355Z,22.77
2022-08-20T01:20:36.988Z,21.13
2022-08-20T01:23:35.089Z,19.88
2022-08-20T01:26:06.414Z,20.08
2022-08-20T01:29:00.708Z,19.13
2022-08-20T01:31:30.543Z,19.95
2022-08-20T01:33:59.614Z,21.52
2022-08-20T01:36:34.701Z,18.92
2022-08-20T01:39:04.533Z,23.50
2022-08-20T01:41:53.236Z,19.60
2022-08-20T01:44:21.718Z,20.02
2022-08-20T01:46:57.591Z,21.45
2022-08-20T01:49:32.803Z,22.80
2022-08-20T01:52:02.550Z,25.73
2022-08-20T01:54:33.036Z,20.60
2022-08-20T01:57:15.933Z,22.33
2022-08-20T01:59:50.690Z,24.00
2022-08-20T02:02:29.484Z,20.70
2022-08-20T02:05:01.131Z,22.38
2022-08-20T02:07:32.835Z,28.77
2022-08-20T02:10:01.898Z,24.02
2022-08-20T02:12:31.784Z,30.95
2022-08-20T02:15:05.671Z,40.65
2022-08-20T02:17:34.230Z,39.57
2022-08-20T02:20:06.675Z,45.88
2022-08-20T02:22:35.298Z,44.78
2022-08-20T02:25:07.670Z,45.35
2022-08-20T02:27:44.194Z,46.83
2022-08-20T02:30:28.154Z,53.63
2022-08-20T02:32:57.790Z,50.88
2022-08-20T02:35:26.741Z,51.53
2022-08-20T02:37:55.803Z,56.58
2022-08-20T02:40:30.402Z,60.08
2022-08-20T02:43:00.471Z,61.15
2022-08-20T02:45:44.185Z,60.88
2022-08-20T02:48:18.987Z,57.65
2022-08-20T02:50:49.390Z,60.90
2022-08-20T02:53:18.097Z,62.83
2022-08-20T02:55:58.345Z,56.62
2022-08-20T02:58:32.740Z,53.42
2022-08-20T03:01:01.785Z,69.35
2022-08-20T03:03:41.934Z,60.38
2022-08-20T03:06:11.521Z,53.40
2022-08-20T03:08:50.209Z,54.25
2022-08-20T03:11:18.637Z,53.00
2022-08-20T03:13:53.012Z,52.90
2022-08-20T03:16:23.524Z,49.30
2022-08-20T03:18:57.815Z,47.45
2022-08-20T03:21:26.982Z,46.08
2022-08-20T03:23:59.649Z,47.10
2022-08-20T03:26:28.014Z,46.43
2022-08-20T03:29:00.912Z,43.50
2022-08-20T03:31:30.159Z,45.33
2022-08-20T03:34:08.978Z,49.53
2022-08-20T03:36:47.401Z,43.17
2022-08-20T03:39:15.914Z,48.10
2022-08-20T03:41:49.036Z,41.40
2022-08-20T03:44:17.521Z,43.05
2022-08-20T03:46:51.164Z,42.80
2022-08-20T03:49:19.546Z,47.10
2022-08-20T03:51:57.633Z,43.80
2022-08-20T03:54:30.137Z,40.28
2022-08-20T03:57:03.823Z,38.83
2022-08-20T03:59:42.203Z,37.25
2022-08-20T04:02:13.700Z,36.60
2022-08-20T04:04:42.257Z,40.55
2022-08-20T04:07:15.121Z,45.58
2022-08-20T04:09:46.733Z,42.15
2022-08-20T04:12:21.733Z,42.65
2022-08-20T04:14:51.274Z,43.83
2022-08-20T04:17:20.641Z,41.10
2022-08-20T04:19:50.953Z,45.60
2022-08-20T04:22:31.444Z,40.42
2022-08-20T04:25:05.601Z,43.90
2022-08-20T04:27:39.255Z,39.40
2022-08-20T04:30:08.857Z,50.67
2022-08-20T04:32:38.153Z,42.28
2022-08-20T04:35:08.378Z,39.45
2022-08-20T04:37:38.820Z,43.08
2022-08-20T04:40:26.992Z,43.63
2022-08-20T04:42:55.548Z,49.35
2022-08-20T04:45:24.333Z,41.25
2022-08-20T04:47:54.587Z,46.17
2022-08-20T04:50:23.485Z,42.95
2022-08-20T04:53:00.088Z,43.38
2022-08-20T04:55:28.736Z,39.63
2022-08-20T04:58:03.259Z,41.15
2022-08-20T05:00:36.941Z,35.42
2022-08-20T05:03:07.463Z,34.30
2022-08-20T05:05:36.043Z,35.92
2022-08-20T05:08:20.135Z,35.58
2022-08-20T05:10:49.440Z,36.05
2022-08-20T05:13:27.425Z,34.55
2022-08-20T05:15:56.565Z,36.20
2022-08-20T05:18:26.856Z,34.85
2022-08-20T05:21:06.365Z,42.75
2022-08-20T05:23:36.033Z,38.45
2022-08-20T05:26:08.115Z,40.28
2022-08-20T05:28:48.898Z,40.38
2022-08-20T05:31:22.666Z,41.00
2022-08-20T05:34:10.751Z,41.42
2022-08-20T05:36:49.241Z,45.92
2022-08-20T05:39:23.254Z,40.83
2022-08-20T05:41:56.025Z,45.53
2022-08-20T05:44:33.957Z,43.92
2022-08-20T05:47:10.633Z,44.97
2022-08-20T05:49:40.529Z,47.13
2022-08-20T05:52:08.956Z,42.65
2022-08-20T05:54:38.675Z,45.42
2022-08-20T05:57:07.208Z,39.40
2022-08-20T05:59:37.019Z,43.05
2022-08-20T06:02:30.410Z,40.05
2022-08-20T06:04:59.997Z,37.72
2022-08-20T06:07:39.963Z,37.95
2022-08-20T06:10:09.545Z,31.35
2022-08-20T06:12:48.319Z,37.22
2022-08-20T06:15:16.806Z,36.33
2022-08-20T06:17:45.397Z,34.28
2022-08-20T06:20:26.502Z,36.83
2022-08-20T06:22:55.260Z,34.75
2022-08-20T06:25:23.656Z,36.88
2022-08-20T06:27:52.028Z,32.00
2022-08-20T06:30:25.921Z,35.58
2022-08-20T06:32:54.396Z,35.47
2022-08-20T06:35:22.901Z,31.73
2022-08-20T06:37:57.938Z,31.62
2022-08-20T06:40:28.873Z,28.30
2022-08-20T06:42:57.695Z,26.38
2022-08-20T06:45:30.712Z,31.42
2022-08-20T06:48:02.584Z,22.12
2022-08-20T06:50:32.939Z,22.63
2022-08-20T06:53:01.459Z,23.60
2022-08-20T06:55:34.004Z,20.70
2022-08-20T06:58:32.792Z,24.13
2022-08-20T07:00:57.157Z,22.85
2022-08-20T07:03:25.799Z,18.85
2022-08-20T07:05:54.182Z,17.65
2022-08-20T07:08:22.669Z,24.43
2022-08-20T07:10:51.581Z,23.00
2022-08-20T07:13:20.181Z,22.80
2022-08-20T07:15:51.037Z,24.95
2022-08-20T07:18:28.639Z,18.36
2022-08-20T07:20:57.863Z,19.17
2022-08-20T07:23:26.767Z,19.35
2022-08-20T07:25:56.129Z,16.52
2022-08-20T07:28:25.878Z,15.18
2022-08-20T07:31:14.471Z,18.55
2022-08-20T07:33:44.888Z,19.42
2022-08-20T07:36:14.094Z,17.50
2022-08-20T07:38:48.051Z,21.27
2022-08-20T07:41:16.610Z,26.70
2022-08-20T07:43:46.058Z,16.15
2022-08-20T07:46:15.658Z,16.92
2022-08-20T07:48:50.534Z,18.53
2022-08-20T07:51:20.715Z,19.00
2022-08-20T07:53:50.693Z,20.75
2022-08-20T07:56:21.807Z,19.65
2022-08-20T07:58:51.835Z,18.00
2022-08-20T08:01:28.888Z,17.40
2022-08-20T08:03:58.129Z,16.05
2022-08-20T08:06:29.469Z,19.70
2022-08-20T08:09:06.668Z,15.25
2022-08-20T08:11:50.800Z,14.93
2022-08-20T08:14:25.135Z,13.77
2022-08-20T08:16:54.912Z,23.13
2022-08-20T08:19:23.926Z,19.17
2022-08-20T08:21:58.703Z,26.75
2022-08-20T08:24:28.630Z,32.55
2022-08-20T08:27:09.006Z,25.75
2022-08-20T08:29:38.158Z,28.40
2022-08-20T08:32:07.226Z,40.05
2022-08-20T08:34:41.190Z,30.02
2022-08-20T08:37:09.598Z,33.28
2022-08-20T08:39:43.420Z,31.50
2022-08-20T08:42:27.530Z,24.27
2022-08-20T08:45:07.106Z,26.25
2022-08-20T08:47:38.180Z,29.30
2022-08-20T08:50:07.990Z,27.87
2022-08-20T08:52:41.457Z,34.95
2022-08-20T08:55:13.549Z,33.40
2022-08-20T08:57:42.253Z,40.35
2022-08-20T09:00:15.196Z,38.67
2022-08-20T09:03:00.455Z,32.47
2022-08-20T09:05:32.954Z,38.28
2022-08-20T09:08:03.399Z,34.20
2022-08-20T09:10:37.430Z,38.63
2022-08-20T09:13:06.752Z,21.52
2022-08-20T09:15:35.869Z,22.15
2022-08-20T09:18:04.487Z,18.27
2022-08-20T09:20:33.615Z,17.25
2022-08-20T09:23:02.256Z,12.75
2022-08-20T09:25:30.805Z,9.90
2022-08-20T09:27:59.281Z,13.57
2022-08-20T09:30:28.391Z,13.40
2022-08-20T09:32:59.295Z,9.85
2022-08-20T09:35:28.349Z,10.88
2022-08-20T09:37:57.147Z,10.30
2022-08-20T09:40:25.804Z,10.38
2022-08-20T09:42:54.517Z,11.27
2022-08-20T09:45:23.193Z,8.10
2022-08-20T09:48:04.845Z,11.85
2022-08-20T09:50:41.537Z,9.82
2022-08-20T09:53:10.311Z,8.30
2022-08-20T09:55:50.529Z,7.53
2022-08-20T09:58:25.415Z,7.13
2022-08-20T10:01:14.211Z,8.57
2022-08-20T10:03:43.498Z,9.25
2022-08-20T10:06:15.061Z,7.95
2022-08-20T10:08:43.925Z,10.80
2022-08-20T10:13:48.420Z,8.75
2022-08-20T10:16:16.786Z,8.38
2022-08-20T10:18:45.195Z,8.38
2022-08-20T10:21:13.613Z,8.30
2022-08-20T10:23:42.331Z,7.97
2022-08-20T10:26:11.913Z,8.45
2022-08-20T10:28:40.518Z,9.13
2022-08-20T10:31:10.620Z,8.52
2022-08-20T10:33:39.435Z,8.82
2022-08-20T10:36:10.856Z,9.25
2022-08-20T10:38:39.278Z,9.02
2022-08-20T10:41:07.745Z,9.15
2022-08-20T10:43:36.189Z,9.77
2022-08-20T10:46:15.217Z,8.70
2022-08-20T10:48:43.922Z,8.90
2022-08-20T10:51:12.521Z,11.15
2022-08-20T10:53:41.743Z,9.93
2022-08-20T10:56:12.784Z,8.57
2022-08-20T10:58:45.171Z,9.43
2022-08-20T11:01:32.695Z,10.10
2022-08-20T11:04:03.723Z,8.98
2022-08-20T11:06:32.147Z,8.18
2022-08-20T11:09:00.801Z,7.63
2022-08-20T11:11:29.470Z,8.63
2022-08-20T11:13:58.389Z,8.77
2022-08-20T11:16:32.336Z,8.25
2022-08-20T11:19:00.782Z,7.95
2022-08-20T11:21:29.255Z,7.85
2022-08-20T11:24:02.247Z,8.68
2022-08-20T11:26:31.297Z,7.70
2022-08-20T11:28:59.655Z,8.23
2022-08-20T11:31:33.013Z,8.70
2022-08-20T11:34:01.459Z,7.63
2022-08-20T11:36:29.897Z,7.80
2022-08-20T11:38:59.759Z,7.45
2022-08-20T11:41:28.252Z,7.63
2022-08-20T11:44:20.476Z,9.40
2022-08-20T11:46:50.631Z,7.18
2022-08-20T11:49:23.598Z,8.73
2022-08-20T11:51:52.138Z,7.93
2022-08-20T11:54:26.237Z,8.88
2022-08-20T11:56:55.070Z,7.65
2022-08-20T11:59:29.320Z,10.85
2022-08-20T12:02:12.184Z,9.07
2022-08-20T12:04:40.974Z,7.28
2022-08-20T12:07:20.300Z,8.75
2022-08-20T12:09:51.117Z,8.55
2022-08-20T12:12:21.840Z,7.75
2022-08-20T12:15:00.048Z,7.50
2022-08-20T12:17:29.877Z,7.32
2022-08-20T12:19:59.210Z,7.22
2022-08-20T12:22:27.985Z,6.75
2022-08-20T12:24:56.677Z,7.95
2022-08-20T12:27:26.773Z,7.45
2022-08-20T12:29:59.605Z,7.22
2022-08-20T12:32:28.996Z,6.72
2022-08-20T12:34:58.162Z,7.40
2022-08-20T12:37:27.754Z,6.47
2022-08-20T12:39:57.383Z,7.57
2022-08-20T12:42:26.392Z,6.97
2022-08-20T12:44:54.773Z,6.97
2022-08-20T12:47:44.956Z,9.07
2022-08-20T12:50:18.720Z,6.57
2022-08-20T12:52:48.524Z,8.85
2022-08-20T12:55:18.415Z,9.32
2022-08-20T12:57:52.823Z,11.18
2022-08-20T13:00:23.718Z,7.00
2022-08-20T13:02:54.237Z,6.63
2022-08-20T13:05:23.614Z,9.45
2022-08-20T13:07:53.027Z,6.97
2022-08-20T13:10:25.986Z,7.93
2022-08-20T13:12:54.989Z,9.10
2022-08-20T13:15:24.191Z,8.85
2022-08-20T13:17:53.414Z,6.88
2022-08-20T13:20:22.211Z,7.80
2022-08-20T13:22:50.998Z,8.35
2022-08-20T13:25:19.633Z,7.10
2022-08-20T13:27:48.249Z,9.15
2022-08-20T13:30:18.368Z,7.93
2022-08-20T13:32:47.096Z,8.80
2022-08-20T13:35:15.587Z,10.50
2022-08-20T13:37:44.213Z,7.13
2022-08-20T13:40:12.865Z,9.20
2022-08-20T13:42:41.415Z,11.18
2022-08-20T13:45:10.465Z,9.60
2022-08-20T13:47:40.266Z,13.65
2022-08-20T13:50:10.620Z,10.65
2022-08-20T13:52:39.152Z,8.80
2022-08-20T13:55:09.548Z,11.05
2022-08-20T13:57:38.801Z,8.73
2022-08-20T14:00:10.802Z,11.80
2022-08-20T14:02:39.531Z,11.50
2022-08-20T14:05:08.464Z,12.13
2022-08-20T14:07:36.988Z,11.70
2022-08-20T14:10:07.610Z,15.95
2022-08-20T14:12:36.066Z,12.60
2022-08-20T14:15:04.857Z,14.60
2022-08-20T14:17:34.928Z,12.60
2022-08-20T14:20:06.167Z,16.92
2022-08-20T14:22:36.713Z,15.57
2022-08-20T14:25:06.624Z,14.20
2022-08-20T14:27:35.123Z,16.13
2022-08-20T14:30:05.329Z,15.40
2022-08-20T14:32:33.816Z,13.63
2022-08-20T14:35:10.540Z,14.93
2022-08-20T14:37:40.433Z,16.65
2022-08-20T14:40:11.503Z,15.43
2022-08-20T14:42:40.489Z,17.15
2022-08-20T14:45:13.079Z,14.35
2022-08-20T14:47:42.983Z,14.98
2022-08-20T14:50:14.195Z,18.13
2022-08-20T14:52:42.829Z,25.90
2022-08-20T14:55:14.217Z,21.02
2022-08-20T14:57:43.568Z,19.30
2022-08-20T15:00:13.956Z,17.33
2022-08-20T15:02:42.440Z,18.37
2022-08-20T15:05:11.015Z,20.20
2022-08-20T15:07:41.238Z,23.45
2022-08-20T15:10:11.831Z,21.90
2022-08-20T15:12:42.969Z,20.74
2022-08-20T15:15:13.561Z,23.83
2022-08-20T15:17:47.190Z,18.60
2022-08-20T15:20:20.490Z,24.50
2022-08-20T15:22:50.690Z,26.83
2022-08-20T15:25:20.841Z,21.92
2022-08-20T15:27:50.060Z,22.48
2022-08-20T15:30:20.669Z,24.17
2022-08-20T15:32:55.005Z,16.66
2022-08-20T15:35:24.914Z,23.17
2022-08-20T15:37:55.081Z,22.83
2022-08-20T15:40:27.874Z,18.75
2022-08-20T15:43:03.715Z,19.40
2022-08-20T15:45:32.583Z,24.42
2022-08-20T15:48:13.840Z,24.17
2022-08-20T15:50:48.494Z,19.40
2022-08-20T15:53:20.552Z,18.83
2022-08-20T15:55:54.449Z,15.75
2022-08-20T15:58:32.436Z,22.65
2022-08-20T16:01:24.033Z,15.63
2022-08-20T16:04:08.949Z,16.25
2022-08-20T16:06:38.210Z,14.85
2022-08-20T16:09:22.097Z,17.23
2022-08-20T16:11:56.787Z,15.82
2022-08-20T16:14:27.317Z,17.88
2022-08-20T16:17:01.840Z,18.52
2022-08-20T16:19:48.811Z,24.27
2022-08-20T16:22:18.589Z,25.15
2022-08-20T16:24:47.175Z,24.30
2022-08-20T16:27:34.299Z,18.48
2022-08-20T16:30:03.446Z,22.17
2022-08-20T16:32:41.050Z,23.73
2022-08-20T16:35:21.770Z,19.98
2022-08-20T16:37:54.826Z,17.73
2022-08-20T16:40:35.693Z,23.83
2022-08-20T16:43:05.716Z,19.77
2022-08-20T16:45:38.412Z,20.33
2022-08-20T16:48:11.913Z,21.65
2022-08-20T16:50:47.475Z,25.17
2022-08-20T16:53:20.898Z,25.20
2022-08-20T16:55:59.341Z,22.42
2022-08-20T16:58:27.809Z,23.15
2022-08-20T17:01:07.824Z,27.52
2022-08-20T17:03:40.983Z,27.98
2022-08-20T17:06:17.357Z,29.10
2022-08-20T17:08:50.367Z,25.60
2022-08-20T17:11:25.198Z,25.90
2022-08-20T17:14:15.133Z,28.48
2022-08-20T17:16:48.213Z,31.02
2022-08-20T17:19:20.007Z,30.77
2022-08-20T17:21:53.314Z,30.75
2022-08-20T17:24:30.667Z,21.92
2022-08-20T17:27:10.322Z,28.52
2022-08-20T17:29:54.090Z,40.35
2022-08-20T17:32:24.556Z,34.28
2022-08-20T17:34:54.574Z,36.72
2022-08-20T17:37:26.041Z,25.17
2022-08-20T17:40:07.096Z,30.52
2022-08-20T17:42:51.171Z,27.15
2022-08-20T17:45:25.560Z,32.97
2022-08-20T17:47:54.383Z,35.63
2022-08-20T17:50:30.326Z,36.90
2022-08-20T17:53:03.829Z,34.55
2022-08-20T17:55:33.987Z,33.75
2022-08-20T17:58:10.408Z,35.83
2022-08-20T18:00:39.015Z,37.63
2022-08-20T18:03:19.359Z,36.25
2022-08-20T18:05:54.696Z,40.50
2022-08-20T18:08:30.936Z,50.38
2022-08-20T18:11:08.587Z,37.40
2022-08-20T18:13:36.982Z,36.67
2022-08-20T18:16:17.166Z,40.95
2022-08-20T18:18:56.898Z,38.72
2022-08-20T18:21:31.299Z,50.45
2022-08-20T18:24:09.013Z,48.00
2022-08-20T18:26:50.400Z,46.08
2022-08-20T18:29:27.811Z,56.17
2022-08-20T18:32:07.781Z,44.67
2022-08-20T18:34:41.291Z,47.38
2022-08-20T18:37:28.040Z,48.75
2022-08-20T18:40:06.247Z,43.90
2022-08-20T18:42:36.510Z,42.20
2022-08-20T18:45:06.596Z,45.70
2022-08-20T18:47:34.935Z,51.50
2022-08-20T18:50:16.774Z,55.80
2022-08-20T18:56:27.065Z,49.80
2022-08-20T18:59:01.375Z,38.95
2022-08-20T19:01:41.341Z,40.95
2022-08-20T19:04:22.856Z,43.03
2022-08-20T19:06:57.318Z,38.58
2022-08-20T19:09:26.249Z,40.30
2022-08-20T19:15:31.828Z,36.48
2022-08-20T19:18:21.100Z,41.22
2022-08-20T19:20:53.238Z,34.95
2022-08-20T19:23:23.721Z,38.92
2022-08-20T19:26:19.723Z,39.78
2022-08-20T19:29:08.979Z,35.42
2022-08-20T19:31:38.051Z,35.42
2022-08-20T19:34:19.925Z,37.85
2022-08-20T19:36:59.003Z,35.00
2022-08-20T19:39:31.503Z,39.97
2022-08-20T19:42:05.988Z,36.85
2022-08-20T19:44:41.196Z,38.80
2022-08-20T19:50:28.395Z,34.10
2022-08-20T20:02:03.348Z,27.13
2022-08-20T20:04:55.045Z,21.75
2022-08-20T20:07:30.427Z,23.20
2022-08-20T20:09:59.448Z,20.70
2022-08-20T20:12:27.836Z,22.98
2022-08-20T20:14:56.302Z,26.33
2022-08-20T20:17:26.370Z,23.70
2022-08-20T20:19:59.627Z,29.17
2022-08-20T20:22:32.790Z,31.88
2022-08-20T20:25:13.913Z,25.02
2022-08-20T20:27:46.145Z,22.70
2022-08-20T20:30:14.668Z,19.77
2022-08-20T20:32:46.694Z,31.58
2022-08-20T20:35:23.760Z,35.78
2022-08-20T20:37:58.318Z,36.00
2022-08-20T20:40:29.099Z,44.67
2022-08-20T20:42:59.342Z,37.97
2022-08-20T20:48:52.973Z,33.60
2022-08-20T20:51:36.717Z,34.38
2022-08-20T20:54:27.084Z,41.25
2022-08-20T20:57:02.047Z,38.28
2022-08-20T20:59:31.422Z,39.08
2022-08-20T21:02:01.004Z,42.22
2022-08-20T21:04:29.667Z,41.58
2022-08-20T21:06:59.588Z,33.88
2022-08-20T21:09:28.076Z,26.45
2022-08-20T21:11:56.397Z,30.25
2022-08-20T21:14:35.479Z,32.03
2022-08-20T21:17:05.397Z,32.20
2022-08-20T21:19:44.956Z,32.58
2022-08-20T21:22:14.817Z,29.77
2022-08-20T21:24:43.249Z,30.92
2022-08-20T21:27:12.679Z,32.05
2022-08-20T21:29:41.777Z,36.13
2022-08-20T21:32:12.393Z,34.88
2022-08-20T21:34:43.742Z,30.17
2022-08-20T21:37:12.130Z,31.20
2022-08-20T21:39:50.543Z,28.05
2022-08-20T21:42:28.973Z,33.40
2022-08-20T21:44:58.868Z,27.08
2022-08-20T21:47:28.120Z,30.25
2022-08-20T21:49:56.511Z,30.15
2022-08-20T21:52:24.997Z,20.65
2022-08-20T21:54:53.743Z,23.52
2022-08-20T21:57:25.542Z,17.88
2022-08-20T21:59:54.704Z,17.17
2022-08-20T22:02:25.215Z,21.27
2022-08-20T22:04:54.171Z,14.63
2022-08-20T22:07:31.901Z,18.38
2022-08-20T22:10:00.268Z,14.07
2022-08-20T22:12:28.632Z,16.42
2022-08-20T22:15:02.596Z,20.58
2022-08-20T22:17:32.234Z,17.65
2022-08-20T22:20:06.068Z,14.32
2022-08-20T22:22:34.433Z,14.43
2022-08-20T22:25:08.166Z,15.07
2022-08-20T22:27:40.843Z,14.80
2022-08-20T22:30:09.588Z,14.27
2022-08-20T22:32:51.751Z,13.98
2022-08-20T22:35:20.905Z,14.05
2022-08-20T22:37:54.329Z,19.05
2022-08-20T22:40:22.780Z,8.02
2022-08-20T22:42:55.879Z,16.10
2022-08-20T22:45:24.868Z,14.52
2022-08-20T22:47:58.538Z,11.83
2022-08-20T22:50:27.428Z,10.57
2022-08-20T22:53:07.508Z,10.35
2022-08-20T22:55:36.097Z,10.90
2022-08-20T22:58:15.381Z,18.05
2022-08-20T23:00:46.347Z,18.65
2022-08-20T23:03:39.024Z,26.85
2022-08-20T23:06:09.468Z,29.67
2022-08-20T23:08:38.463Z,17.80
2022-08-20T23:11:08.730Z,18.17
2022-08-20T23:13:37.063Z,13.45
2022-08-20T23:16:05.656Z,17.90
2022-08-20T23:18:33.981Z,18.58
2022-08-20T23:21:02.386Z,14.75
2022-08-20T23:23:30.804Z,15.18
2022-08-20T23:25:59.325Z,15.55
2022-08-20T23:28:27.886Z,18.30
2022-08-20T23:30:56.248Z,18.10
2022-08-20T23:33:26.002Z,19.38
2022-08-20T23:35:54.413Z,20.50
2022-08-20T23:38:22.754Z,21.25
2022-08-20T23:40:51.071Z,21.88
2022-08-20T23:43:19.435Z,22.52
2022-08-20T23:45:47.758Z,19.75
2022-08-20T23:48:21.343Z,19.83
2022-08-20T23:50:49.681Z,18.10
2022-08-20T23:53:18.031Z,18.58
2022-08-20T23:55:46.649Z,15.80
2022-08-20T23:58:15.083Z,15.37
